createdAt,value
2017-12-28T00:02:12.075Z,1.50
2017-12-28T00:04:39.534Z,1.77
2017-12-28T00:07:07.006Z,1.37
2017-12-28T00:09:34.459Z,1.50
2017-12-28T00:12:01.910Z,2.00
2017-12-28T00:14:29.378Z,2.60
2017-12-28T00:16:56.831Z,2.57
2017-12-28T00:19:24.290Z,2.73
2017-12-28T00:21:51.754Z,1.87
2017-12-28T00:24:19.205Z,2.43
2017-12-28T00:26:46.658Z,2.37
2017-12-28T00:29:14.141Z,2.70
2017-12-28T00:31:42.366Z,3.27
2017-12-28T00:34:10.597Z,2.50
2017-12-28T00:36:38.830Z,2.93
2017-12-28T00:39:06.282Z,2.07
2017-12-28T00:41:33.739Z,1.70
2017-12-28T00:44:01.206Z,2.50
2017-12-28T00:46:28.657Z,2.03
2017-12-28T00:48:56.126Z,2.00
2017-12-28T00:51:23.586Z,1.77
2017-12-28T00:53:51.034Z,2.03
2017-12-28T00:56:18.500Z,1.50
2017-12-28T00:58:45.966Z,1.90
2017-12-28T01:01:13.420Z,1.80
2017-12-28T01:03:40.875Z,1.70
2017-12-28T01:06:08.334Z,1.87
2017-12-28T01:08:35.803Z,1.60
2017-12-28T01:11:04.049Z,1.97
2017-12-28T01:13:31.514Z,2.20
2017-12-28T01:15:58.976Z,1.60
2017-12-28T01:18:26.428Z,1.60
2017-12-28T01:20:53.901Z,1.70
2017-12-28T01:23:22.120Z,1.40
2017-12-28T01:25:49.570Z,1.03
2017-12-28T01:28:17.030Z,1.23
2017-12-28T01:30:44.488Z,1.60
2017-12-28T01:33:11.947Z,0.93
2017-12-28T01:35:39.414Z,1.13
2017-12-28T01:38:06.862Z,1.27
2017-12-28T01:40:34.315Z,1.00
2017-12-28T01:43:01.793Z,1.10
2017-12-28T01:45:29.247Z,1.50
2017-12-28T01:48:02.549Z,1.00
2017-12-28T01:50:30.004Z,1.10
2017-12-28T01:52:57.455Z,1.90
2017-12-28T01:55:24.987Z,2.37
2017-12-28T01:57:52.422Z,1.20
2017-12-28T02:00:19.869Z,2.57
2017-12-28T02:02:48.097Z,1.93
2017-12-28T02:05:15.614Z,1.80
2017-12-28T02:07:43.063Z,2.90
2017-12-28T02:10:10.525Z,2.50
2017-12-28T02:12:38.812Z,2.30
2017-12-28T02:15:06.263Z,2.60
2017-12-28T02:17:33.733Z,2.40
2017-12-28T02:20:01.194Z,3.23
2017-12-28T02:22:28.654Z,2.20
2017-12-28T02:24:56.117Z,2.30
2017-12-28T02:27:24.334Z,2.33
2017-12-28T02:29:52.562Z,2.30
2017-12-28T02:32:20.041Z,1.57
2017-12-28T02:34:47.497Z,1.60
2017-12-28T02:37:14.951Z,1.70
2017-12-28T02:39:42.411Z,1.40
2017-12-28T02:42:09.866Z,1.50
2017-12-28T02:44:37.325Z,1.37
2017-12-28T02:47:04.795Z,1.10
2017-12-28T02:49:32.250Z,1.37
2017-12-28T02:51:59.701Z,1.60
2017-12-28T02:54:27.180Z,1.60
2017-12-28T02:56:55.394Z,1.67
2017-12-28T02:59:22.850Z,2.03
2017-12-28T03:01:50.318Z,1.40
2017-12-28T03:04:17.771Z,2.00
2017-12-28T03:06:45.221Z,2.57
2017-12-28T03:09:12.687Z,2.10
2017-12-28T03:11:40.144Z,2.67
2017-12-28T03:14:07.590Z,1.63
2017-12-28T03:16:35.054Z,1.80
2017-12-28T03:19:02.519Z,2.83
2017-12-28T03:21:29.958Z,2.60
2017-12-28T03:23:58.182Z,3.37
2017-12-28T03:26:25.630Z,2.60
2017-12-28T03:28:53.087Z,2.80
2017-12-28T03:31:20.557Z,2.70
2017-12-28T03:33:48.007Z,3.03
2017-12-28T03:36:15.470Z,3.70
2017-12-28T03:38:42.949Z,2.90
2017-12-28T03:41:10.406Z,3.40
2017-12-28T03:43:38.621Z,3.13
2017-12-28T03:46:06.087Z,3.37
2017-12-28T03:48:33.574Z,3.67
2017-12-28T03:51:01.025Z,2.90
2017-12-28T03:53:28.489Z,4.40
2017-12-28T03:55:56.706Z,3.20
2017-12-28T03:58:24.162Z,6.10
2017-12-28T04:00:51.630Z,3.27
2017-12-28T04:03:19.083Z,2.90
2017-12-28T04:05:46.541Z,2.90
2017-12-28T04:08:14.015Z,3.47
2017-12-28T04:10:41.470Z,3.60
2017-12-28T04:13:08.934Z,2.93
2017-12-28T04:15:36.398Z,3.87
2017-12-28T04:18:03.855Z,3.97
2017-12-28T04:20:31.352Z,3.73
2017-12-28T04:22:58.783Z,4.03
2017-12-28T04:25:26.242Z,3.00
2017-12-28T04:27:53.698Z,3.17
2017-12-28T04:30:21.241Z,3.07
2017-12-28T04:32:48.702Z,2.60
2017-12-28T04:35:16.154Z,2.30
2017-12-28T04:37:43.624Z,2.73
2017-12-28T04:40:11.081Z,5.70
2017-12-28T04:42:38.522Z,2.87
2017-12-28T04:45:05.991Z,2.90
2017-12-28T04:47:33.463Z,2.83
2017-12-28T04:50:01.681Z,3.17
2017-12-28T04:52:29.141Z,2.60
2017-12-28T04:54:56.599Z,2.70
2017-12-28T04:57:24.050Z,3.50
2017-12-28T04:59:51.513Z,2.17
2017-12-28T05:02:18.966Z,2.77
2017-12-28T05:04:46.415Z,2.60
2017-12-28T05:07:13.919Z,1.57
2017-12-28T05:09:41.366Z,1.57
2017-12-28T05:12:08.824Z,1.50
2017-12-28T05:14:36.286Z,1.70
2017-12-28T05:17:03.770Z,2.13
2017-12-28T05:19:31.981Z,1.60
2017-12-28T05:21:59.454Z,2.87
2017-12-28T05:24:26.912Z,1.83
2017-12-28T05:26:54.353Z,1.93
2017-12-28T05:29:21.827Z,3.20
2017-12-28T05:31:49.281Z,3.10
2017-12-28T05:34:16.803Z,2.60
2017-12-28T05:36:44.273Z,2.93
2017-12-28T05:39:11.724Z,1.50
2017-12-28T05:41:39.178Z,2.43
2017-12-28T05:44:06.637Z,3.13
2017-12-28T05:46:34.095Z,2.30
2017-12-28T05:49:01.563Z,2.50
2017-12-28T05:51:29.036Z,3.27
2017-12-28T05:53:56.490Z,2.63
2017-12-28T05:56:23.965Z,3.03
2017-12-28T05:58:51.438Z,2.70
2017-12-28T06:01:19.649Z,3.40
2017-12-28T06:03:47.104Z,3.63
2017-12-28T06:06:14.566Z,2.53
2017-12-28T06:08:42.029Z,2.47
2017-12-28T06:11:09.478Z,2.87
2017-12-28T06:13:36.953Z,2.93
2017-12-28T06:16:04.410Z,2.33
2017-12-28T06:18:31.867Z,2.97
2017-12-28T06:20:59.378Z,2.50
2017-12-28T06:23:26.859Z,2.70
2017-12-28T06:25:54.297Z,2.50
2017-12-28T06:28:21.776Z,3.40
2017-12-28T06:30:49.217Z,2.70
2017-12-28T06:33:16.680Z,2.90
2017-12-28T06:35:44.166Z,1.93
2017-12-28T06:38:11.633Z,2.17
2017-12-28T06:40:39.081Z,2.37
2017-12-28T06:43:06.659Z,2.97
2017-12-28T06:45:34.128Z,3.33
2017-12-28T06:48:02.361Z,2.77
2017-12-28T06:50:29.830Z,2.60
2017-12-28T06:52:57.294Z,3.17
2017-12-28T06:55:24.762Z,2.40
2017-12-28T06:57:52.251Z,2.20
2017-12-28T07:00:19.705Z,2.20
2017-12-28T07:02:47.927Z,2.40
2017-12-28T07:05:16.163Z,2.47
2017-12-28T07:07:43.619Z,2.77
2017-12-28T07:10:11.071Z,2.60
2017-12-28T07:12:39.314Z,2.50
2017-12-28T07:15:06.779Z,2.57
2017-12-28T07:17:34.990Z,2.77
2017-12-28T07:20:02.493Z,2.17
2017-12-28T07:22:29.954Z,2.57
2017-12-28T07:24:57.414Z,1.97
2017-12-28T07:27:24.898Z,1.87
2017-12-28T07:29:53.114Z,2.23
2017-12-28T07:32:20.603Z,2.47
2017-12-28T07:34:48.071Z,1.97
2017-12-28T07:37:16.333Z,2.13
2017-12-28T07:39:43.789Z,1.93
2017-12-28T07:42:11.257Z,2.10
2017-12-28T07:44:39.554Z,1.90
2017-12-28T07:47:07.782Z,2.57
2017-12-28T07:49:36.021Z,1.63
2017-12-28T07:52:03.466Z,1.70
2017-12-28T07:54:30.917Z,1.80
2017-12-28T07:56:59.165Z,1.70
2017-12-28T07:59:26.618Z,1.93
2017-12-28T08:01:54.090Z,2.83
2017-12-28T08:04:22.318Z,2.00
2017-12-28T08:06:49.812Z,1.90
2017-12-28T08:09:18.029Z,2.67
2017-12-28T08:11:45.503Z,2.37
2017-12-28T08:14:12.958Z,1.97
2017-12-28T08:16:40.418Z,3.07
2017-12-28T08:19:07.913Z,2.27
2017-12-28T08:21:36.879Z,2.00
2017-12-28T08:24:04.338Z,2.00
2017-12-28T08:26:31.825Z,2.50
2017-12-28T08:28:59.284Z,1.80
2017-12-28T08:31:26.739Z,2.27
2017-12-28T08:33:54.988Z,2.10
2017-12-28T08:36:22.451Z,2.90
2017-12-28T08:38:49.926Z,1.97
2017-12-28T08:41:17.385Z,2.90
2017-12-28T08:43:45.659Z,2.53
2017-12-28T08:46:13.925Z,2.10
2017-12-28T08:48:41.487Z,2.43
2017-12-28T08:51:08.938Z,2.30
2017-12-28T08:53:36.395Z,1.87
2017-12-28T08:56:03.873Z,1.60
2017-12-28T08:58:32.127Z,1.97
2017-12-28T09:00:59.587Z,2.53
2017-12-28T09:03:27.055Z,1.50
2017-12-28T09:05:55.282Z,1.40
2017-12-28T09:08:22.743Z,1.30
2017-12-28T09:10:50.227Z,1.20
2017-12-28T09:13:17.693Z,1.57
2017-12-28T09:15:45.143Z,1.47
2017-12-28T09:18:12.623Z,2.07
2017-12-28T09:20:40.838Z,2.17
2017-12-28T09:23:08.291Z,1.60
2017-12-28T09:25:35.775Z,1.70
2017-12-28T09:28:03.231Z,1.40
2017-12-28T09:30:30.695Z,1.20
2017-12-28T09:32:58.170Z,1.47
2017-12-28T09:35:25.626Z,1.40
2017-12-28T09:37:53.078Z,1.60
2017-12-28T09:40:20.539Z,1.73
2017-12-28T09:42:47.986Z,1.63
2017-12-28T09:45:16.946Z,1.40
2017-12-28T09:47:44.421Z,1.60
2017-12-28T09:50:11.874Z,2.30
2017-12-28T09:52:39.330Z,1.60
2017-12-28T09:55:06.806Z,1.40
2017-12-28T09:57:34.269Z,1.97
2017-12-28T10:00:01.723Z,2.60
2017-12-28T10:02:29.187Z,1.80
2017-12-28T10:04:56.643Z,1.47
2017-12-28T10:07:24.097Z,2.03
2017-12-28T10:09:51.560Z,1.70
2017-12-28T10:12:19.031Z,1.83
2017-12-28T10:14:47.249Z,2.33
2017-12-28T10:17:14.719Z,2.17
2017-12-28T10:19:42.173Z,1.80
2017-12-28T10:22:09.626Z,1.47
2017-12-28T10:24:37.090Z,1.57
2017-12-28T10:27:04.562Z,2.00
2017-12-28T10:29:32.013Z,2.00
2017-12-28T10:31:59.485Z,1.73
2017-12-28T10:34:26.935Z,1.47
2017-12-28T10:36:54.386Z,1.60
2017-12-28T10:39:21.847Z,1.63
2017-12-28T10:41:49.293Z,1.60
2017-12-28T10:44:16.750Z,1.83
2017-12-28T10:46:44.217Z,2.30
2017-12-28T10:49:11.667Z,2.07
2017-12-28T10:51:39.122Z,2.27
2017-12-28T10:54:06.590Z,2.60
2017-12-28T10:56:34.050Z,1.60
2017-12-28T10:59:01.503Z,1.80
2017-12-28T11:01:28.963Z,3.30
2017-12-28T11:03:56.418Z,2.10
2017-12-28T11:06:23.858Z,1.57
2017-12-28T11:08:51.326Z,1.83
2017-12-28T11:11:18.791Z,2.00
2017-12-28T11:13:46.303Z,1.70
2017-12-28T11:16:13.878Z,2.23
2017-12-28T11:18:41.346Z,2.93
2017-12-28T11:21:08.816Z,2.40
2017-12-28T11:23:36.284Z,2.73
2017-12-28T11:26:04.498Z,2.30
2017-12-28T11:28:31.950Z,1.67
2017-12-28T11:30:59.418Z,1.20
2017-12-28T11:33:26.878Z,1.67
2017-12-28T11:35:54.335Z,1.70
2017-12-28T11:38:21.841Z,1.40
2017-12-28T11:40:50.211Z,1.60
2017-12-28T11:43:17.663Z,1.70
2017-12-28T11:45:45.138Z,1.80
2017-12-28T11:48:13.361Z,1.20
2017-12-28T11:50:41.370Z,1.20
2017-12-28T11:53:08.823Z,2.03
2017-12-28T11:55:42.023Z,1.83
2017-12-28T11:58:10.257Z,1.43
2017-12-28T12:00:43.289Z,2.13
2017-12-28T12:03:27.311Z,1.97
2017-12-28T12:05:54.767Z,2.60
2017-12-28T12:08:28.049Z,2.27
2017-12-28T12:10:55.676Z,3.00
2017-12-28T12:13:23.141Z,1.63
2017-12-28T12:15:50.647Z,1.80
2017-12-28T12:18:18.151Z,1.60
2017-12-28T12:20:45.639Z,1.60
2017-12-28T12:23:13.090Z,1.50
2017-12-28T12:25:40.555Z,1.30
2017-12-28T12:28:08.055Z,1.80
2017-12-28T12:30:36.281Z,1.60
2017-12-28T12:33:03.738Z,1.43
2017-12-28T12:35:31.194Z,1.70
2017-12-28T12:37:58.654Z,1.43
2017-12-28T12:40:26.124Z,1.87
2017-12-28T12:42:53.603Z,3.50
2017-12-28T12:45:21.843Z,1.83
2017-12-28T12:47:49.285Z,1.90
2017-12-28T12:50:16.734Z,1.40
2017-12-28T12:52:44.209Z,1.93
2017-12-28T12:55:11.663Z,2.83
2017-12-28T12:57:39.123Z,1.73
2017-12-28T13:00:06.594Z,2.20
2017-12-28T13:02:34.059Z,2.07
2017-12-28T13:05:01.506Z,2.30
2017-12-28T13:07:28.983Z,4.00
2017-12-28T13:09:57.198Z,2.17
2017-12-28T13:12:24.661Z,1.90
2017-12-28T13:14:52.128Z,1.90
2017-12-28T13:17:19.594Z,1.50
2017-12-28T13:19:47.050Z,1.63
2017-12-28T13:22:14.519Z,1.60
2017-12-28T13:24:41.966Z,2.43
2017-12-28T13:27:09.409Z,3.87
2017-12-28T13:29:36.886Z,2.03
2017-12-28T13:32:04.330Z,1.60
2017-12-28T13:34:31.785Z,1.97
2017-12-28T13:37:00.030Z,2.03
2017-12-28T13:39:27.483Z,1.63
2017-12-28T13:41:54.940Z,2.00
2017-12-28T13:44:22.393Z,2.10
2017-12-28T13:46:49.838Z,1.73
2017-12-28T13:49:17.294Z,1.97
2017-12-28T13:51:45.522Z,2.63
2017-12-28T13:54:13.043Z,1.80
2017-12-28T13:56:40.478Z,1.60
2017-12-28T13:59:08.712Z,1.70
2017-12-28T14:01:36.165Z,1.90
2017-12-28T14:04:03.625Z,1.57
2017-12-28T14:06:31.102Z,2.03
2017-12-28T14:08:58.555Z,2.67
2017-12-28T14:11:26.010Z,1.60
2017-12-28T14:13:53.506Z,1.80
2017-12-28T14:16:20.950Z,1.70
2017-12-28T14:18:49.175Z,2.30
2017-12-28T14:21:16.643Z,2.13
2017-12-28T14:23:44.099Z,2.10
2017-12-28T14:26:11.610Z,1.67
2017-12-28T14:28:39.071Z,2.33
2017-12-28T14:31:06.522Z,1.60
2017-12-28T14:33:33.966Z,1.57
2017-12-28T14:36:02.199Z,1.93
2017-12-28T14:38:29.650Z,3.00
2017-12-28T14:40:57.108Z,1.90
2017-12-28T14:43:24.569Z,2.00
2017-12-28T14:45:52.021Z,1.83
2017-12-28T14:48:19.479Z,1.57
2017-12-28T14:50:46.940Z,2.00
2017-12-28T14:53:14.389Z,1.60
2017-12-28T14:55:41.887Z,1.70
2017-12-28T14:58:10.253Z,1.80
2017-12-28T15:00:37.707Z,1.47
2017-12-28T15:03:05.163Z,1.60
2017-12-28T15:05:32.618Z,1.93
2017-12-28T15:08:00.069Z,2.07
2017-12-28T15:10:27.562Z,2.00
2017-12-28T15:12:55.041Z,1.87
2017-12-28T15:15:22.495Z,2.73
2017-12-28T15:17:49.973Z,1.60
2017-12-28T15:20:17.460Z,2.03
2017-12-28T15:22:44.914Z,2.13
2017-12-28T15:25:12.370Z,1.77
2017-12-28T15:27:39.822Z,1.73
2017-12-28T15:30:07.281Z,1.53
2017-12-28T15:32:34.738Z,1.43
2017-12-28T15:35:02.233Z,2.10
2017-12-28T15:37:29.694Z,2.17
2017-12-28T15:39:57.131Z,2.50
2017-12-28T15:42:25.363Z,2.23
2017-12-28T15:44:52.822Z,1.80
2017-12-28T15:47:20.306Z,3.07
2017-12-28T15:49:47.774Z,2.10
2017-12-28T15:52:15.994Z,1.90
2017-12-28T15:54:43.451Z,1.83
2017-12-28T15:57:10.923Z,1.90
2017-12-28T15:59:38.382Z,1.53
2017-12-28T16:02:05.858Z,1.97
2017-12-28T16:04:33.370Z,2.50
2017-12-28T16:07:00.826Z,2.60
2017-12-28T16:09:28.290Z,2.83
2017-12-28T16:11:55.762Z,2.00
2017-12-28T16:14:23.226Z,2.30
2017-12-28T16:16:50.703Z,1.77
2017-12-28T16:19:18.159Z,2.37
2017-12-28T16:21:45.611Z,2.57
2017-12-28T16:24:13.078Z,2.43
2017-12-28T16:26:40.575Z,1.80
2017-12-28T16:29:08.033Z,1.73
2017-12-28T16:31:35.494Z,2.73
2017-12-28T16:34:02.966Z,2.47
2017-12-28T16:36:30.500Z,2.50
2017-12-28T16:38:57.947Z,2.53
2017-12-28T16:41:25.426Z,2.27
2017-12-28T16:43:52.915Z,2.40
2017-12-28T16:46:20.384Z,2.87
2017-12-28T16:48:47.852Z,2.00
2017-12-28T16:51:16.070Z,1.80
2017-12-28T16:53:43.559Z,2.37
2017-12-28T16:56:11.059Z,2.23
2017-12-28T16:58:38.515Z,1.93
2017-12-28T17:01:06.738Z,2.90
2017-12-28T17:03:34.212Z,2.37
2017-12-28T17:06:01.667Z,2.47
2017-12-28T17:08:29.123Z,2.40
2017-12-28T17:10:56.787Z,2.30
2017-12-28T17:13:24.243Z,3.23
2017-12-28T17:15:51.756Z,2.63
2017-12-28T17:18:19.225Z,2.50
2017-12-28T17:20:46.683Z,2.33
2017-12-28T17:23:14.134Z,2.90
2017-12-28T17:25:41.623Z,1.93
2017-12-28T17:28:09.071Z,1.87
2017-12-28T17:30:36.522Z,2.13
2017-12-28T17:33:04.757Z,3.00
2017-12-28T17:35:32.201Z,2.10
2017-12-28T17:38:00.427Z,2.77
2017-12-28T17:40:27.895Z,2.30
2017-12-28T17:42:55.343Z,2.67
2017-12-28T17:45:22.798Z,2.63
2017-12-28T17:47:50.269Z,2.73
2017-12-28T17:50:17.715Z,3.03
2017-12-28T17:52:45.179Z,2.40
2017-12-28T17:55:12.662Z,2.97
2017-12-28T17:57:40.883Z,2.53
2017-12-28T18:00:08.335Z,2.90
2017-12-28T18:02:35.798Z,2.73
2017-12-28T18:05:03.255Z,3.17
2017-12-28T18:07:30.711Z,3.80
2017-12-28T18:09:58.178Z,2.73
2017-12-28T18:12:26.390Z,1.77
2017-12-28T18:14:54.610Z,2.20
2017-12-28T18:17:22.074Z,2.83
2017-12-28T18:19:49.518Z,2.13
2017-12-28T18:22:16.974Z,2.63
2017-12-28T18:24:44.448Z,2.60
2017-12-28T18:27:11.895Z,2.60
2017-12-28T18:29:39.347Z,2.27
2017-12-28T18:32:06.816Z,3.07
2017-12-28T18:34:34.279Z,2.67
2017-12-28T18:37:01.727Z,3.30
2017-12-28T18:39:29.200Z,2.70
2017-12-28T18:41:56.666Z,4.90
2017-12-28T18:44:24.127Z,3.03
2017-12-28T18:46:51.591Z,2.90
2017-12-28T18:49:19.042Z,3.37
2017-12-28T18:51:46.499Z,2.90
2017-12-28T18:54:13.978Z,2.83
2017-12-28T18:56:42.206Z,2.43
2017-12-28T18:59:09.650Z,2.53
2017-12-28T19:01:37.147Z,2.70
2017-12-28T19:04:04.603Z,2.97
2017-12-28T19:06:32.078Z,2.87
2017-12-28T19:09:00.298Z,2.70
2017-12-28T19:11:27.773Z,2.63
2017-12-28T19:13:55.225Z,2.00
2017-12-28T19:16:22.695Z,2.83
2017-12-28T19:18:50.147Z,2.10
2017-12-28T19:21:17.731Z,2.53
2017-12-28T19:23:45.210Z,2.53
2017-12-28T19:26:13.454Z,6.40
2017-12-28T19:28:40.898Z,8.40
2017-12-28T19:31:08.367Z,8.50
2017-12-28T19:33:35.825Z,2.80
2017-12-28T19:36:03.279Z,4.40
2017-12-28T19:38:30.772Z,3.57
2017-12-28T19:40:59.014Z,3.57
2017-12-28T19:43:26.461Z,2.70
2017-12-28T19:45:53.972Z,3.03
2017-12-28T19:48:21.490Z,2.83
2017-12-28T19:50:48.939Z,2.87
2017-12-28T19:53:16.409Z,3.13
2017-12-28T19:55:43.860Z,3.37
2017-12-28T19:58:11.306Z,5.40
2017-12-28T20:00:38.772Z,4.13
2017-12-28T20:03:06.215Z,3.27
2017-12-28T20:05:33.674Z,2.87
2017-12-28T20:08:01.135Z,3.07
2017-12-28T20:10:28.595Z,3.00
2017-12-28T20:12:56.042Z,3.40
2017-12-28T20:15:23.501Z,3.70
2017-12-28T20:17:50.969Z,4.03
2017-12-28T20:20:18.422Z,4.23
2017-12-28T20:22:45.878Z,4.00
2017-12-28T20:25:13.334Z,3.10
2017-12-28T20:27:40.782Z,3.37
2017-12-28T20:30:08.259Z,3.70
2017-12-28T20:32:36.494Z,3.90
2017-12-28T20:35:03.949Z,3.57
2017-12-28T20:37:31.425Z,3.80
2017-12-28T20:39:58.873Z,3.83
2017-12-28T20:42:26.326Z,4.73
2017-12-28T20:44:53.819Z,4.70
2017-12-28T20:47:22.045Z,5.60
2017-12-28T20:49:49.495Z,3.83
2017-12-28T20:52:18.219Z,3.90
2017-12-28T20:54:45.675Z,3.13
2017-12-28T20:57:14.007Z,3.67
2017-12-28T20:59:41.473Z,4.07
2017-12-28T21:02:08.922Z,3.90
2017-12-28T21:04:36.378Z,3.47
2017-12-28T21:07:03.847Z,3.00
2017-12-28T21:09:31.298Z,3.07
2017-12-28T21:11:58.759Z,3.77
2017-12-28T21:14:26.223Z,4.07
2017-12-28T21:16:53.679Z,3.30
2017-12-28T21:19:21.144Z,3.77
2017-12-28T21:21:48.604Z,3.80
2017-12-28T21:24:16.055Z,3.90
2017-12-28T21:26:43.509Z,4.10
2017-12-28T21:29:10.995Z,4.07
2017-12-28T21:31:38.441Z,3.10
2017-12-28T21:34:05.898Z,4.43
2017-12-28T21:36:33.363Z,3.10
2017-12-28T21:39:00.814Z,3.03
2017-12-28T21:41:28.315Z,3.90
2017-12-28T21:43:55.755Z,5.40
2017-12-28T21:46:23.973Z,5.20
2017-12-28T21:48:51.434Z,5.33
2017-12-28T21:51:18.897Z,4.60
2017-12-28T21:53:46.372Z,4.73
2017-12-28T21:56:13.815Z,4.37
2017-12-28T21:58:41.287Z,4.37
2017-12-28T22:01:08.774Z,5.10
2017-12-28T22:03:36.999Z,3.80
2017-12-28T22:06:04.461Z,4.73
2017-12-28T22:08:31.918Z,4.03
2017-12-28T22:10:59.389Z,3.67
2017-12-28T22:13:26.863Z,4.03
2017-12-28T22:15:54.306Z,4.30
2017-12-28T22:18:21.755Z,4.20
2017-12-28T22:20:49.217Z,2.93
2017-12-28T22:23:16.696Z,3.00
2017-12-28T22:25:44.910Z,3.10
2017-12-28T22:28:12.387Z,3.57
2017-12-28T22:30:39.842Z,2.53
2017-12-28T22:33:08.300Z,2.80
2017-12-28T22:35:35.786Z,2.33
2017-12-28T22:38:03.252Z,3.50
2017-12-28T22:40:30.706Z,3.10
2017-12-28T22:42:58.191Z,4.00
2017-12-28T22:45:26.406Z,3.20
2017-12-28T22:47:53.881Z,2.73
2017-12-28T22:50:21.355Z,3.47
2017-12-28T22:52:48.873Z,2.87
2017-12-28T22:55:16.346Z,3.30
2017-12-28T22:57:43.806Z,2.97
2017-12-28T23:00:11.318Z,3.10
2017-12-28T23:02:39.547Z,3.13
2017-12-28T23:05:07.009Z,3.43
2017-12-28T23:07:34.474Z,3.90
2017-12-28T23:10:01.935Z,3.53
2017-12-28T23:12:29.390Z,3.47
2017-12-28T23:14:56.846Z,3.20
2017-12-28T23:17:24.301Z,3.30
2017-12-28T23:19:51.766Z,2.90
2017-12-28T23:22:19.216Z,3.30
2017-12-28T23:24:46.666Z,3.83
2017-12-28T23:27:14.122Z,3.13
2017-12-28T23:29:41.590Z,3.37
2017-12-28T23:32:09.043Z,2.60
2017-12-28T23:34:36.514Z,2.50
2017-12-28T23:37:04.725Z,2.87
2017-12-28T23:39:32.182Z,2.70
2017-12-28T23:41:59.647Z,2.33
2017-12-28T23:44:27.106Z,2.53
2017-12-28T23:46:54.567Z,2.93
2017-12-28T23:49:22.031Z,2.83
2017-12-28T23:51:49.489Z,2.50
2017-12-28T23:54:16.949Z,2.87
2017-12-28T23:56:44.414Z,2.23
2017-12-28T23:59:11.874Z,2.63
